Time;durP1;ratioP1;P1;durP2;ratioP2;P2;SDS_P1;SDS_P2;PMS_P1;PMS_P2;Temp;Humidity;BMP_temperature;BMP_pressure;BME280_temperature;BME280_humidity;BME280_pressure;Samples;Min_cycle;Max_cycle;Signal;HPM_P1;HPM_P2
2023/04/19 00:00:18;;;;;;;3.38;2.63;;;;;;;10.41;nan;-24107.75;4984683;28;20177;-70
2023/04/19 00:02:44;;;;;;;5.10;2.88;;;;;;;10.41;nan;-24107.88;4992381;28;20180;-70
2023/04/19 00:05:10;;;;;;;4.82;2.63;;;;;;;10.16;nan;-24100.97;4992339;28;20184;-70
2023/04/19 00:07:36;;;;;;;4.85;3.17;;;;;;;10.20;nan;-24101.97;4990892;28;20216;-70
2023/04/19 00:10:02;;;;;;;4.03;2.80;;;;;;;10.35;nan;-24106.19;4992312;28;20207;-70
2023/04/19 00:12:27;;;;;;;4.78;2.80;;;;;;;10.38;nan;-24106.91;4992209;28;20659;-69
2023/04/19 00:14:53;;;;;;;3.83;2.72;;;;;;;10.33;nan;-24105.50;4992440;28;20169;-69
2023/04/19 00:17:18;;;;;;;4.10;2.42;;;;;;;10.30;nan;-24104.78;4991036;28;20698;-69
2023/04/19 00:19:44;;;;;;;3.97;2.97;;;;;;;9.95;nan;-24094.91;4994629;28;20235;-69
2023/04/19 00:22:09;;;;;;;3.35;2.63;;;;;;;10.21;nan;-24102.25;4992919;28;20204;-69
2023/04/19 00:24:35;;;;;;;4.75;2.88;;;;;;;10.33;nan;-24105.63;4992135;28;20204;-70
2023/04/19 00:27:01;;;;;;;4.03;2.70;;;;;;;10.31;nan;-24105.06;4992284;28;20181;-69
2023/04/19 00:29:26;;;;;;;4.78;2.97;;;;;;;9.92;nan;-24094.06;4992217;28;20181;-70
2023/04/19 00:31:51;;;;;;;6.05;3.38;;;;;;;9.87;nan;-24092.63;4986836;28;20255;-70
2023/04/19 00:34:17;;;;;;;6.07;2.88;;;;;;;10.26;nan;-24103.66;4983263;28;20633;-70
2023/04/19 00:36:42;;;;;;;5.90;3.20;;;;;;;10.36;nan;-24106.47;4991283;28;20571;-70
2023/04/19 00:39:08;;;;;;;3.33;2.95;;;;;;;10.05;nan;-24097.72;4995523;28;20667;-70
2023/04/19 00:41:33;;;;;;;3.55;2.65;;;;;;;10.03;nan;-24097.31;4996109;28;20188;-70
2023/04/19 00:43:59;;;;;;;4.05;3.00;;;;;;;10.30;nan;-24104.66;4995585;28;20175;-70
2023/04/19 00:46:24;;;;;;;6.95;3.30;;;;;;;10.05;nan;-24097.72;4995893;28;20688;-70
2023/04/19 00:48:50;;;;;;;6.05;2.88;;;;;;;10.30;nan;-24104.66;4996035;28;20302;-70
2023/04/19 00:51:16;;;;;;;4.50;2.88;;;;;;;9.96;nan;-24095.31;4995348;28;20645;-70
2023/04/19 00:53:42;;;;;;;4.72;2.88;;;;;;;10.22;nan;-24102.38;4995480;28;20172;-69
2023/04/19 00:56:09;;;;;;;5.10;3.42;;;;;;;10.26;nan;-24103.66;4994995;28;20188;-70
2023/04/19 00:58:37;;;;;;;3.83;2.40;;;;;;;10.36;nan;-24106.34;4995743;28;20176;-71
2023/04/19 01:01:03;;;;;;;3.67;2.60;;;;;;;10.04;nan;-24097.44;4995727;28;20716;-70
2023/04/19 01:03:29;;;;;;;4.20;2.58;;;;;;;10.05;nan;-24097.72;4995319;28;20256;-70
2023/04/19 01:05:55;;;;;;;3.58;2.42;;;;;;;10.25;nan;-24103.38;4994950;28;20565;-69
2023/04/19 01:08:21;;;;;;;4.03;2.70;;;;;;;10.18;nan;-24101.41;4988704;28;20196;-69
2023/04/19 01:10:47;;;;;;;2.72;2.30;;;;;;;10.16;nan;-24100.84;4982542;28;20181;-71
2023/04/19 01:13:12;;;;;;;4.28;2.13;;;;;;;9.97;nan;-24095.47;4990154;28;20272;-70
2023/04/19 01:15:38;;;;;;;3.65;2.15;;;;;;;10.11;nan;-24099.56;4995062;28;20207;-69
2023/04/19 01:18:03;;;;;;;2.67;2.10;;;;;;;9.90;nan;-24093.63;4994777;28;20275;-69
2023/04/19 01:20:29;;;;;;;2.75;2.22;;;;;;;10.06;nan;-24098.16;4998842;28;20173;-68
2023/04/19 01:22:54;;;;;;;3.30;2.00;;;;;;;10.34;nan;-24105.91;4994891;28;20212;-69
2023/04/19 01:25:20;;;;;;;3.15;2.08;;;;;;;10.37;nan;-24106.63;4994599;28;20597;-69
2023/04/19 01:27:45;;;;;;;2.50;1.92;;;;;;;10.05;nan;-24097.72;4995546;28;20173;-69
2023/04/19 01:30:11;;;;;;;2.63;2.22;;;;;;;9.93;nan;-24094.34;4995279;28;20161;-70
2023/04/19 01:32:36;;;;;;;2.13;1.83;;;;;;;9.83;nan;-24091.50;4995052;28;20682;-70
2023/04/19 01:35:02;;;;;;;2.55;2.10;;;;;;;10.11;nan;-24099.41;4994761;28;20660;-69
2023/04/19 01:37:27;;;;;;;3.10;2.15;;;;;;;10.38;nan;-24107.03;4994577;28;20209;-69
2023/04/19 01:39:52;;;;;;;2.75;2.13;;;;;;;10.43;nan;-24108.47;4994623;28;20268;-69
2023/04/19 01:42:18;;;;;;;2.70;2.10;;;;;;;10.15;nan;-24100.53;4994714;28;20173;-69
2023/04/19 01:44:43;;;;;;;2.17;1.73;;;;;;;10.45;nan;-24109.03;4988207;28;20671;-70
2023/04/19 01:47:08;;;;;;;2.70;2.05;;;;;;;10.08;nan;-24098.56;4979444;28;20229;-70
2023/04/19 01:49:34;;;;;;;2.10;1.70;;;;;;;10.09;nan;-24098.84;4992217;28;20180;-70
2023/04/19 01:52:00;;;;;;;2.33;1.50;;;;;;;10.21;nan;-24102.25;4994235;28;20658;-70
2023/04/19 01:54:25;;;;;;;2.45;1.80;;;;;;;10.06;nan;-24098.00;4994252;28;20180;-70
2023/04/19 01:56:51;;;;;;;1.70;1.60;;;;;;;10.19;nan;-24101.69;4994681;28;20193;-69
2023/04/19 01:59:16;;;;;;;1.90;1.70;;;;;;;10.14;nan;-24100.25;4994183;28;20181;-70
2023/04/19 02:01:42;;;;;;;1.95;1.70;;;;;;;10.08;nan;-24098.56;4994219;28;20185;-70
2023/04/19 02:04:08;;;;;;;2.13;1.90;;;;;;;9.76;nan;-24089.66;4994321;28;20548;-70
2023/04/19 02:06:33;;;;;;;1.88;1.73;;;;;;;10.14;nan;-24100.41;4993833;28;20189;-70
2023/04/19 02:08:59;;;;;;;3.50;2.00;;;;;;;9.95;nan;-24095.03;4992589;28;20190;-70
2023/04/19 02:11:24;;;;;;;2.47;1.85;;;;;;;9.98;nan;-24095.75;4994049;28;20227;-69
2023/04/19 02:13:50;;;;;;;2.58;1.80;;;;;;;10.14;nan;-24100.41;4993939;28;20180;-69
2023/04/19 02:16:15;;;;;;;1.92;1.70;;;;;;;10.21;nan;-24102.09;4994133;28;20216;-69
2023/04/19 02:18:40;;;;;;;2.20;1.75;;;;;;;10.08;nan;-24098.72;4993681;28;20723;-70
2023/04/19 02:21:07;;;;;;;2.33;1.85;;;;;;;9.92;nan;-24094.06;4988297;28;20189;-70
2023/04/19 02:23:34;;;;;;;1.70;1.60;;;;;;;9.83;nan;-24091.66;4982761;28;20197;-70
2023/04/19 02:26:01;;;;;;;1.90;1.58;;;;;;;9.76;nan;-24089.66;4976568;28;20281;-70
2023/04/19 02:28:28;;;;;;;2.42;2.00;;;;;;;10.01;nan;-24096.72;4974999;28;20173;-70
2023/04/19 02:30:54;;;;;;;1.70;1.60;;;;;;;9.87;nan;-24092.63;4993716;28;20208;-70
2023/04/19 02:33:21;;;;;;;2.20;1.80;;;;;;;9.65;nan;-24086.56;4993158;28;20264;-70
2023/04/19 02:35:46;;;;;;;1.63;1.48;;;;;;;9.96;nan;-24095.31;4992072;28;20172;-70
2023/04/19 02:38:12;;;;;;;2.15;1.77;;;;;;;10.11;nan;-24099.56;4992667;28;20872;-71
2023/04/19 02:40:37;;;;;;;1.83;1.70;;;;;;;10.12;nan;-24099.84;4993274;28;20558;-68
2023/04/19 02:43:03;;;;;;;2.72;1.73;;;;;;;10.16;nan;-24100.84;4992984;28;20242;-69
2023/04/19 02:45:28;;;;;;;1.50;1.40;;;;;;;9.90;nan;-24093.47;4993050;28;20528;-68
2023/04/19 02:47:54;;;;;;;2.10;1.60;;;;;;;10.00;nan;-24096.44;4992657;28;20306;-69
2023/04/19 02:50:19;;;;;;;2.25;1.75;;;;;;;9.97;nan;-24095.59;4993024;28;20177;-70
2023/04/19 02:52:45;;;;;;;1.80;1.70;;;;;;;9.97;nan;-24095.47;4992314;28;20204;-70
2023/04/19 02:55:10;;;;;;;2.15;1.70;;;;;;;10.04;nan;-24097.44;4992782;28;20203;-70
2023/04/19 02:57:35;;;;;;;2.22;1.80;;;;;;;9.96;nan;-24095.19;4992467;28;20216;-70
2023/04/19 03:00:01;;;;;;;1.90;1.67;;;;;;;9.74;nan;-24089.25;4993007;28;20185;-70
2023/04/19 03:02:26;;;;;;;2.37;1.70;;;;;;;10.03;nan;-24097.31;4993162;28;20179;-70
2023/04/19 03:04:54;;;;;;;2.50;1.70;;;;;;;9.74;nan;-24089.25;4986489;28;20644;-70
2023/04/19 03:07:20;;;;;;;1.90;1.70;;;;;;;9.66;nan;-24086.84;4978598;28;20181;-70
2023/04/19 03:09:45;;;;;;;1.70;1.45;;;;;;;10.07;nan;-24098.44;4988575;28;20189;-70
2023/04/19 03:12:10;;;;;;;1.73;1.63;;;;;;;10.27;nan;-24103.78;4992933;28;20205;-70
2023/04/19 03:14:36;;;;;;;3.30;1.80;;;;;;;10.12;nan;-24099.84;4993027;28;20603;-70
2023/04/19 03:17:02;;;;;;;3.15;2.03;;;;;;;10.20;nan;-24101.97;4992926;28;20204;-70
2023/04/19 03:19:27;;;;;;;2.15;1.95;;;;;;;10.03;nan;-24097.31;4991550;28;20268;-70
2023/04/19 03:21:53;;;;;;;2.53;2.10;;;;;;;9.94;nan;-24094.63;4996693;28;20223;-70
2023/04/19 03:24:19;;;;;;;6.15;2.30;;;;;;;10.08;nan;-24098.56;4986378;28;20188;-70
2023/04/19 03:26:44;;;;;;;3.13;2.10;;;;;;;10.05;nan;-24097.88;4975576;28;20181;-70
2023/04/19 03:29:10;;;;;;;2.88;2.38;;;;;;;10.25;nan;-24103.38;4992776;28;20172;-70
2023/04/19 03:31:36;;;;;;;3.60;2.45;;;;;;;10.25;nan;-24103.38;4992347;28;20184;-70
2023/04/19 03:34:01;;;;;;;3.17;2.10;;;;;;;10.01;nan;-24096.59;4992370;28;20172;-70
2023/04/19 03:36:27;;;;;;;2.17;1.95;;;;;;;10.25;nan;-24103.38;4988494;28;20173;-70
2023/04/19 03:38:52;;;;;;;2.67;1.88;;;;;;;10.21;nan;-24102.25;4973438;28;20696;-70
2023/04/19 03:41:19;;;;;;;3.58;1.77;;;;;;;10.27;nan;-24103.78;4972947;28;20536;-70
2023/04/19 03:43:45;;;;;;;2.25;1.50;;;;;;;9.95;nan;-24094.91;4980447;28;20184;-70
2023/04/19 03:46:10;;;;;;;1.85;1.67;;;;;;;10.30;nan;-24104.78;4976786;28;20203;-70
2023/04/19 03:48:35;;;;;;;2.25;1.60;;;;;;;10.25;nan;-24103.38;4991181;28;20225;-71
2023/04/19 03:51:01;;;;;;;1.33;1.23;;;;;;;10.05;nan;-24097.72;4991828;28;20247;-69
2023/04/19 03:53:26;;;;;;;1.60;1.50;;;;;;;10.44;nan;-24108.75;4992302;28;20223;-70
2023/04/19 03:55:51;;;;;;;2.07;1.60;;;;;;;10.32;nan;-24105.34;4992473;28;20177;-70
2023/04/19 03:58:17;;;;;;;6.97;1.67;;;;;;;10.47;nan;-24109.59;4992393;28;20200;-70
2023/04/19 04:00:42;;;;;;;1.77;1.52;;;;;;;10.14;nan;-24100.41;4992246;28;20679;-70
2023/04/19 04:03:08;;;;;;;1.50;1.40;;;;;;;10.42;nan;-24108.03;4992306;28;20226;-70
2023/04/19 04:05:34;;;;;;;1.73;1.63;;;;;;;10.46;nan;-24109.16;4991888;28;20542;-70
2023/04/19 04:07:59;;;;;;;1.67;1.58;;;;;;;10.10;nan;-24099.13;4995011;28;20307;-69
2023/04/19 04:10:25;;;;;;;1.85;1.40;;;;;;;10.15;nan;-24100.53;4996453;28;20204;-70
2023/04/19 04:12:50;;;;;;;1.40;1.30;;;;;;;10.44;nan;-24108.75;4996111;28;20386;-69
2023/04/19 04:15:16;;;;;;;3.35;1.38;;;;;;;10.66;nan;-24114.66;4995944;28;20171;-69
2023/04/19 04:17:41;;;;;;;2.08;1.70;;;;;;;10.45;nan;-24109.03;4994043;28;20336;-71
2023/04/19 04:20:07;;;;;;;1.52;1.40;;;;;;;10.61;nan;-24113.53;4986088;28;20211;-70
2023/04/19 04:22:33;;;;;;;1.63;1.52;;;;;;;10.48;nan;-24109.88;4984741;28;20181;-70
2023/04/19 04:24:59;;;;;;;1.83;1.50;;;;;;;10.66;nan;-24114.81;4996027;28;20543;-70
2023/04/19 04:27:25;;;;;;;1.80;1.33;;;;;;;10.55;nan;-24111.84;4995865;28;20185;-69
2023/04/19 04:29:50;;;;;;;1.13;1.02;;;;;;;10.87;nan;-24120.72;4995406;28;20179;-70
2023/04/19 04:32:16;;;;;;;1.52;1.42;;;;;;;10.84;nan;-24119.88;4995600;28;20263;-70
2023/04/19 04:34:43;;;;;;;1.75;1.38;;;;;;;10.94;nan;-24122.56;4995382;28;20641;-70
2023/04/19 04:37:09;;;;;;;1.58;1.40;;;;;;;11.07;nan;-24126.38;4995928;28;20199;-69
2023/04/19 04:39:38;;;;;;;1.70;1.60;;;;;;;11.03;nan;-24125.09;4995555;28;20177;-69
2023/04/19 04:42:06;;;;;;;1.35;1.25;;;;;;;11.24;nan;-24131.03;4995722;28;20188;-70
2023/04/19 04:44:33;;;;;;;1.33;1.23;;;;;;;11.05;nan;-24125.66;4995695;28;20626;-70
2023/04/19 04:46:58;;;;;;;1.63;1.38;;;;;;;10.85;nan;-24120.16;4995470;28;20585;-69
2023/04/19 04:49:23;;;;;;;1.65;1.42;;;;;;;11.33;nan;-24133.56;4995206;28;20172;-69
2023/04/19 04:51:49;;;;;;;1.70;1.50;;;;;;;11.23;nan;-24130.75;4995606;28;20192;-68
2023/04/19 04:54:14;;;;;;;1.38;1.25;;;;;;;11.56;nan;-24139.75;4995404;28;20296;-69
2023/04/19 04:56:39;;;;;;;1.38;1.27;;;;;;;11.38;nan;-24134.97;4994184;28;20744;-70
2023/04/19 04:59:06;;;;;;;1.48;1.38;;;;;;;11.52;nan;-24138.78;4995397;28;20195;-69
2023/04/19 05:01:32;;;;;;;1.63;1.40;;;;;;;11.33;nan;-24133.41;4995191;28;20176;-68
2023/04/19 05:03:57;;;;;;;1.73;1.50;;;;;;;11.38;nan;-24134.97;4994843;28;20176;-68
2023/04/19 05:06:23;;;;;;;1.92;1.67;;;;;;;11.67;nan;-24143.00;4995742;28;20176;-69
2023/04/19 05:08:48;;;;;;;1.60;1.50;;;;;;;11.70;nan;-24143.69;4993593;28;20177;-70
2023/04/19 05:11:14;;;;;;;1.60;1.42;;;;;;;11.71;nan;-24144.13;4993485;28;20187;-72
2023/04/19 05:13:39;;;;;;;1.83;1.45;;;;;;;11.95;nan;-24150.88;4994279;28;20240;-73
2023/04/19 05:16:05;;;;;;;2.30;1.75;;;;;;;11.60;nan;-24141.03;4994263;28;20176;-72
2023/04/19 05:18:30;;;;;;;1.58;1.48;;;;;;;11.68;nan;-24143.28;4993457;28;20246;-71
2023/04/19 05:20:56;;;;;;;2.00;1.80;;;;;;;12.00;nan;-24152.16;4997475;28;20204;-70
2023/04/19 05:23:22;;;;;;;1.70;1.60;;;;;;;12.23;nan;-24158.50;4995829;28;20628;-72
2023/04/19 05:25:47;;;;;;;2.28;1.80;;;;;;;11.86;nan;-24148.34;4994246;28;20202;-71
2023/04/19 05:28:13;;;;;;;2.20;1.65;;;;;;;12.08;nan;-24154.25;4993883;28;20172;-72
2023/04/19 05:30:38;;;;;;;2.00;1.58;;;;;;;12.21;nan;-24158.06;4994524;28;20648;-70
2023/04/19 05:33:04;;;;;;;2.20;1.88;;;;;;;12.31;nan;-24160.88;4994032;28;20165;-70
2023/04/19 05:35:29;;;;;;;3.60;1.60;;;;;;;12.33;nan;-24161.44;4994362;28;20187;-73
2023/04/19 05:37:55;;;;;;;2.17;1.70;;;;;;;12.35;nan;-24162.00;4992873;28;20263;-71
2023/04/19 05:40:22;;;;;;;1.67;1.55;;;;;;;12.22;nan;-24158.22;4993711;28;20177;-70
2023/04/19 05:42:48;;;;;;;1.88;1.65;;;;;;;12.53;nan;-24166.78;4974549;28;20627;-73
2023/04/19 05:45:15;;;;;;;2.10;1.77;;;;;;;12.49;nan;-24165.81;4973438;28;20253;-70
2023/04/19 05:47:40;;;;;;;1.70;1.60;;;;;;;12.64;nan;-24170.03;4974384;28;20635;-69
2023/04/19 05:50:06;;;;;;;2.22;1.92;;;;;;;12.30;nan;-24160.47;4974763;28;20177;-69
2023/04/19 05:52:32;;;;;;;1.67;1.50;;;;;;;12.49;nan;-24165.66;4974574;28;20220;-75
2023/04/19 05:54:58;;;;;;;1.70;1.50;;;;;;;12.70;nan;-24171.56;4974652;28;20240;-68
2023/04/19 05:57:23;;;;;;;1.50;1.30;;;;;;;12.92;nan;-24177.75;4974411;28;20268;-69
2023/04/19 05:59:49;;;;;;;1.90;1.70;;;;;;;12.79;nan;-24174.09;4974363;28;20680;-72
2023/04/19 06:02:14;;;;;;;1.70;1.48;;;;;;;12.80;nan;-24174.53;4973960;28;20272;-72
2023/04/19 06:04:40;;;;;;;1.50;1.40;;;;;;;13.32;nan;-24188.72;4974142;28;20169;-72
2023/04/19 06:07:06;;;;;;;2.67;1.75;;;;;;;13.19;nan;-24185.34;4974070;28;20173;-71
2023/04/19 06:09:31;;;;;;;1.50;1.40;;;;;;;13.13;nan;-24183.66;4974293;28;20178;-69
2023/04/19 06:11:57;;;;;;;1.88;1.50;;;;;;;13.25;nan;-24186.91;4976470;28;20192;-72
2023/04/19 06:14:22;;;;;;;2.03;1.65;;;;;;;13.27;nan;-24187.47;4986280;28;20684;-69
2023/04/19 06:16:48;;;;;;;1.40;1.30;;;;;;;13.59;nan;-24196.31;4977633;28;20682;-69
2023/04/19 06:19:13;;;;;;;1.60;1.50;;;;;;;13.53;nan;-24194.75;5008665;28;20213;-69
2023/04/19 06:21:39;;;;;;;2.17;1.73;;;;;;;13.97;nan;-24206.97;4998510;28;20185;-71
2023/04/19 06:24:07;;;;;;;1.92;1.73;;;;;;;13.63;nan;-24197.44;4993558;28;20173;-70
2023/04/19 06:26:33;;;;;;;1.77;1.60;;;;;;;14.35;nan;-24217.34;4986744;28;20243;-70
2023/04/19 06:28:58;;;;;;;2.10;1.70;;;;;;;14.33;nan;-24216.94;4979038;28;20221;-70
2023/04/19 06:31:24;;;;;;;2.10;1.50;;;;;;;14.53;nan;-24222.41;4983461;28;20189;-69
2023/04/19 06:33:49;;;;;;;2.78;1.83;;;;;;;14.34;nan;-24217.22;4983831;28;20192;-68
2023/04/19 06:36:15;;;;;;;1.50;1.40;;;;;;;14.14;nan;-24211.59;4980754;28;20184;-68
2023/04/19 06:38:43;;;;;;;2.67;1.70;;;;;;;14.45;nan;-24220.31;4993004;28;20197;-71
2023/04/19 06:41:09;;;;;;;2.65;1.77;;;;;;;14.63;nan;-24225.06;4991254;28;20188;-70
2023/04/19 06:43:34;;;;;;;2.08;1.70;;;;;;;15.08;nan;-24237.53;4992587;28;20227;-71
2023/04/19 06:46:01;;;;;;;2.13;1.58;;;;;;;15.19;nan;-24240.78;4986471;28;20224;-72
2023/04/19 06:48:26;;;;;;;2.10;1.88;;;;;;;15.53;nan;-24250.16;4975804;28;20307;-72
2023/04/19 06:50:52;;;;;;;2.22;1.60;;;;;;;15.17;nan;-24240.22;4992999;28;20176;-70
2023/04/19 06:53:18;;;;;;;2.05;1.60;;;;;;;15.74;nan;-24255.91;4992629;28;20184;-69
2023/04/19 06:55:44;;;;;;;2.70;2.10;;;;;;;15.25;nan;-24242.44;4992835;28;20169;-68
2023/04/19 06:58:09;;;;;;;2.47;1.60;;;;;;;15.50;nan;-24249.31;4992532;28;20706;-68
2023/04/19 07:00:35;;;;;;;2.08;1.80;;;;;;;15.16;nan;-24239.78;4990914;28;20201;-69
2023/04/19 07:03:01;;;;;;;5.40;1.92;;;;;;;15.53;nan;-24250.16;4993724;28;20259;-72
2023/04/19 07:05:27;;;;;;;2.13;1.75;;;;;;;15.48;nan;-24248.91;4992911;28;20234;-69
2023/04/19 07:07:53;;;;;;;2.30;1.75;;;;;;;15.66;nan;-24253.66;4992599;28;20180;-68
2023/04/19 07:10:18;;;;;;;2.67;2.08;;;;;;;15.72;nan;-24255.47;4992302;28;20640;-71
2023/04/19 07:12:44;;;;;;;3.15;1.98;;;;;;;15.38;nan;-24246.09;4992434;28;20172;-68
2023/04/19 07:15:09;;;;;;;2.42;2.00;;;;;;;16.10;nan;-24265.97;4992236;28;20188;-69
2023/04/19 07:17:35;;;;;;;2.00;1.73;;;;;;;15.83;nan;-24258.56;4991346;28;20287;-70
2023/04/19 07:20:02;;;;;;;2.42;1.83;;;;;;;15.71;nan;-24255.06;4992531;28;20184;-70
2023/04/19 07:22:28;;;;;;;2.80;1.88;;;;;;;15.39;nan;-24246.22;4998298;28;20246;-69
2023/04/19 07:24:53;;;;;;;2.85;2.13;;;;;;;15.44;nan;-24247.78;4992728;28;20268;-70
2023/04/19 07:27:19;;;;;;;3.58;2.00;;;;;;;15.87;nan;-24259.53;4992587;28;20227;-72
2023/04/19 07:29:45;;;;;;;2.97;2.30;;;;;;;15.74;nan;-24255.91;4992344;28;20183;-69
2023/04/19 07:32:12;;;;;;;2.75;1.95;;;;;;;15.71;nan;-24255.06;4992857;28;20251;-69
2023/04/19 07:34:40;;;;;;;4.90;2.30;;;;;;;15.40;nan;-24246.66;4992560;28;20264;-70
2023/04/19 07:37:05;;;;;;;2.63;1.90;;;;;;;15.55;nan;-24250.72;4992340;28;20193;-70
2023/04/19 07:39:31;;;;;;;4.65;1.92;;;;;;;15.79;nan;-24257.44;4992379;28;20656;-68
2023/04/19 07:41:56;;;;;;;3.25;1.90;;;;;;;15.31;nan;-24244.13;4991930;28;20169;-68
2023/04/19 07:44:22;;;;;;;2.53;1.90;;;;;;;15.87;nan;-24259.53;4992587;28;20268;-68
2023/04/19 07:46:47;;;;;;;3.80;2.33;;;;;;;15.68;nan;-24254.34;4991101;28;20636;-72
2023/04/19 07:49:13;;;;;;;1.98;1.77;;;;;;;16.07;nan;-24265.13;4992773;28;20237;-71
2023/04/19 07:51:38;;;;;;;2.63;2.00;;;;;;;15.63;nan;-24252.94;4992673;28;20567;-69
2023/04/19 07:54:04;;;;;;;2.55;1.85;;;;;;;15.88;nan;-24259.81;4992266;28;20256;-71
2023/04/19 07:56:29;;;;;;;2.55;2.20;;;;;;;15.89;nan;-24260.22;4992370;28;20173;-72
2023/04/19 07:58:55;;;;;;;2.05;1.60;;;;;;;16.13;nan;-24266.66;4992344;28;20168;-70
2023/04/19 08:01:20;;;;;;;1.83;1.67;;;;;;;16.16;nan;-24267.66;4992517;28;20204;-69
2023/04/19 08:03:46;;;;;;;1.92;1.73;;;;;;;16.04;nan;-24264.28;4992558;28;20180;-67
2023/04/19 08:06:11;;;;;;;2.25;1.75;;;;;;;16.10;nan;-24265.97;4992456;28;20168;-70
2023/04/19 08:08:37;;;;;;;2.55;1.80;;;;;;;16.37;nan;-24273.25;4992412;28;20177;-70
2023/04/19 08:11:03;;;;;;;3.35;1.90;;;;;;;16.58;nan;-24279.13;4991339;28;20187;-70
2023/04/19 08:13:29;;;;;;;1.55;1.45;;;;;;;16.07;nan;-24265.00;4992294;28;20202;-67
2023/04/19 08:15:54;;;;;;;2.30;2.00;;;;;;;16.13;nan;-24266.81;4992307;28;20173;-69
2023/04/19 08:18:20;;;;;;;2.72;2.00;;;;;;;16.22;nan;-24269.19;4992491;28;20204;-71
2023/04/19 08:20:46;;;;;;;2.05;1.67;;;;;;;16.37;nan;-24273.25;4992511;28;20679;-71
2023/04/19 08:23:12;;;;;;;2.35;1.88;;;;;;;16.41;nan;-24274.50;4996520;28;20189;-70
2023/04/19 08:25:37;;;;;;;2.10;1.80;;;;;;;16.23;nan;-24269.47;4992322;28;20218;-69
2023/04/19 08:28:04;;;;;;;2.28;1.85;;;;;;;16.32;nan;-24271.97;4992168;28;20188;-68
2023/04/19 08:30:29;;;;;;;1.67;1.58;;;;;;;15.94;nan;-24261.34;4992638;28;20644;-68
2023/04/19 08:32:55;;;;;;;2.85;2.10;;;;;;;16.58;nan;-24279.25;4992261;28;20175;-68
2023/04/19 08:35:21;;;;;;;2.55;2.00;;;;;;;16.61;nan;-24279.94;4992023;28;20169;-70
2023/04/19 08:37:48;;;;;;;2.63;1.92;;;;;;;16.57;nan;-24278.97;4991906;28;20235;-72
2023/04/19 08:40:13;;;;;;;3.70;2.00;;;;;;;16.64;nan;-24280.94;4992336;28;20488;-69
2023/04/19 08:42:40;;;;;;;2.00;1.67;;;;;;;16.94;nan;-24289.03;4991737;28;20260;-70
2023/04/19 08:45:06;;;;;;;2.40;1.98;;;;;;;16.84;nan;-24286.38;4992465;28;20177;-68
2023/04/19 08:47:33;;;;;;;2.22;1.70;;;;;;;17.30;nan;-24298.94;4991854;28;20220;-71
2023/04/19 08:50:04;;;;;;;1.95;1.65;;;;;;;17.60;nan;-24307.31;4991823;28;20652;-69
2023/04/19 08:52:32;;;;;;;3.35;1.73;;;;;;;17.77;nan;-24312.06;4991310;28;20559;-70
2023/04/19 08:55:03;;;;;;;2.85;1.80;;;;;;;17.60;nan;-24307.47;4995382;28;20554;-68
2023/04/19 08:57:32;;;;;;;2.58;1.73;;;;;;;17.72;nan;-24310.66;4995456;28;20254;-69
2023/04/19 09:00:05;;;;;;;3.95;1.90;;;;;;;17.47;nan;-24303.81;4995696;28;20164;-70
2023/04/19 09:02:45;;;;;;;2.42;1.80;;;;;;;17.53;nan;-24305.34;4995729;28;20168;-71
2023/04/19 09:05:13;;;;;;;2.45;1.88;;;;;;;17.53;nan;-24305.50;4995458;28;20176;-70
2023/04/19 09:07:38;;;;;;;3.05;2.08;;;;;;;17.89;nan;-24315.28;4993917;28;20184;-68
2023/04/19 09:10:09;;;;;;;2.97;1.80;;;;;;;17.85;nan;-24314.28;4996095;28;20173;-70
2023/04/19 09:12:36;;;;;;;2.58;1.88;;;;;;;18.25;nan;-24325.16;4995229;28;20169;-67
2023/04/19 09:15:03;;;;;;;2.28;1.80;;;;;;;17.49;nan;-24304.38;4995454;28;20604;-67
2023/04/19 09:17:30;;;;;;;3.30;2.00;;;;;;;17.31;nan;-24299.38;4995218;28;20196;-69
2023/04/19 09:19:56;;;;;;;2.28;1.83;;;;;;;17.70;nan;-24309.97;4995058;28;20247;-71
2023/04/19 09:22:22;;;;;;;2.50;1.95;;;;;;;18.25;nan;-24325.31;5000494;28;20173;-66
2023/04/19 09:24:48;;;;;;;2.90;1.70;;;;;;;17.55;nan;-24306.06;4995444;28;20233;-68
2023/04/19 09:27:34;;;;;;;2.05;1.63;;;;;;;17.41;nan;-24302.16;4995291;28;20192;-69
2023/04/19 09:30:01;;;;;;;1.85;1.63;;;;;;;17.64;nan;-24308.56;4995000;28;20271;-70
2023/04/19 09:32:28;;;;;;;2.35;1.73;;;;;;;18.27;nan;-24325.72;4994638;28;20181;-67
2023/04/19 09:34:55;;;;;;;2.67;1.95;;;;;;;18.68;nan;-24337.16;4994158;28;20272;-70
2023/04/19 09:37:21;;;;;;;5.78;2.05;;;;;;;18.52;nan;-24332.81;4994380;28;20266;-71
2023/04/19 09:39:47;;;;;;;1.92;1.63;;;;;;;18.21;nan;-24324.19;4994738;28;20252;-69
2023/04/19 09:42:12;;;;;;;2.22;1.88;;;;;;;18.41;nan;-24329.75;4994356;28;20265;-70
2023/04/19 09:44:38;;;;;;;2.42;1.80;;;;;;;18.64;nan;-24335.91;4994415;28;20173;-68
2023/04/19 09:47:21;;;;;;;3.67;2.00;;;;;;;18.98;nan;-24345.50;4994614;28;20264;-69
2023/04/19 09:49:47;;;;;;;3.35;1.95;;;;;;;18.59;nan;-24334.63;4994696;28;20173;-69
2023/04/19 09:52:13;;;;;;;1.88;1.63;;;;;;;18.73;nan;-24338.41;4994690;28;20555;-70
2023/04/19 09:54:40;;;;;;;2.22;1.90;;;;;;;18.63;nan;-24335.75;4994354;28;20177;-66
2023/04/19 09:57:07;;;;;;;2.08;1.58;;;;;;;19.04;nan;-24346.91;4994123;28;20240;-68
2023/04/19 09:59:32;;;;;;;3.17;1.90;;;;;;;19.22;nan;-24352.03;4995191;28;20172;-68
2023/04/19 10:01:59;;;;;;;2.75;1.60;;;;;;;19.66;nan;-24364.00;4994542;28;20176;-69
2023/04/19 10:04:26;;;;;;;1.90;1.65;;;;;;;19.92;nan;-24371.22;4993114;28;20204;-70
2023/04/19 10:06:53;;;;;;;3.17;1.98;;;;;;;20.28;nan;-24381.22;4994302;28;20176;-70
2023/04/19 10:09:20;;;;;;;2.00;1.70;;;;;;;19.71;nan;-24365.41;4994599;28;20177;-69
2023/04/19 10:11:51;;;;;;;2.30;1.60;;;;;;;19.78;nan;-24367.47;4994187;28;20183;-66
2023/04/19 10:14:22;;;;;;;2.15;1.70;;;;;;;19.87;nan;-24369.84;4992606;28;20214;-70
2023/04/19 10:16:47;;;;;;;2.03;1.73;;;;;;;19.46;nan;-24358.44;4993048;28;20616;-69
2023/04/19 10:19:15;;;;;;;2.65;2.00;;;;;;;19.42;nan;-24357.59;4994244;28;20173;-70
2023/04/19 10:21:42;;;;;;;2.35;1.95;;;;;;;19.51;nan;-24359.84;4994085;28;20180;-67
2023/04/19 10:24:09;;;;;;;2.28;1.70;;;;;;;19.61;nan;-24362.63;4999691;28;20564;-70
2023/04/19 10:27:06;;;;;;;2.25;1.83;;;;;;;19.89;nan;-24370.41;4992931;28;20250;-70
2023/04/19 10:29:56;;;;;;;1.98;1.67;;;;;;;20.10;nan;-24376.09;4993312;28;20173;-71
2023/04/19 10:32:40;;;;;;;2.22;1.70;;;;;;;20.39;nan;-24384.16;4993244;28;20242;-69
2023/04/19 10:35:16;;;;;;;1.98;1.67;;;;;;;20.33;nan;-24382.34;4992955;28;20263;-67
2023/04/19 10:38:01;;;;;;;3.10;1.90;;;;;;;20.42;nan;-24384.84;4993163;28;20612;-68
2023/04/19 10:40:56;;;;;;;2.10;1.52;;;;;;;19.46;nan;-24358.44;4993164;28;20179;-70
2023/04/19 10:43:34;;;;;;;1.27;1.17;;;;;;;19.31;nan;-24354.53;4993140;28;20180;-68
2023/04/19 10:46:19;;;;;;;1.60;1.40;;;;;;;19.20;nan;-24351.47;4992924;28;20230;-69
2023/04/19 10:48:53;;;;;;;1.40;1.30;;;;;;;19.51;nan;-24359.84;4991892;28;20695;-71
2023/04/19 10:51:26;;;;;;;1.95;1.65;;;;;;;19.41;nan;-24357.34;4992574;28;20279;-70
2023/04/19 10:54:00;;;;;;;2.90;1.70;;;;;;;19.36;nan;-24355.94;4992862;28;20176;-69
2023/04/19 10:56:32;;;;;;;1.73;1.42;;;;;;;19.48;nan;-24359.00;4991811;28;20196;-70
2023/04/19 10:59:00;;;;;;;2.10;1.50;;;;;;;19.49;nan;-24359.28;4993179;28;20177;-71
2023/04/19 11:01:53;;;;;;;1.40;1.30;;;;;;;18.85;nan;-24341.88;4992986;28;20188;-70
2023/04/19 11:04:43;;;;;;;1.80;1.50;;;;;;;19.11;nan;-24348.97;4990703;28;20195;-69
2023/04/19 11:07:08;;;;;;;1.30;1.17;;;;;;;19.26;nan;-24353.16;4992685;28;20640;-69
2023/04/19 11:09:37;;;;;;;2.20;1.85;;;;;;;19.32;nan;-24354.81;4993199;28;20180;-71
2023/04/19 11:12:24;;;;;;;2.00;1.58;;;;;;;19.60;nan;-24362.34;4993280;28;20559;-71
2023/04/19 11:14:52;;;;;;;1.77;1.55;;;;;;;19.91;nan;-24370.97;4991523;28;20197;-71
2023/04/19 11:17:24;;;;;;;2.05;1.70;;;;;;;20.35;nan;-24382.91;4992118;28;20212;-68
2023/04/19 11:19:52;;;;;;;1.65;1.40;;;;;;;21.15;nan;-24405.09;4993255;28;20260;-72
2023/04/19 11:22:23;;;;;;;1.60;1.30;;;;;;;21.02;nan;-24401.50;4995329;28;20188;-69
2023/04/19 11:24:49;;;;;;;1.50;1.20;;;;;;;20.70;nan;-24392.63;4995763;28;20161;-72
2023/04/19 11:27:14;;;;;;;5.80;1.60;;;;;;;20.66;nan;-24391.50;4991177;28;20180;-71
2023/04/19 11:29:40;;;;;;;1.67;1.35;;;;;;;20.85;nan;-24396.78;4993024;28;20307;-70
2023/04/19 11:32:06;;;;;;;1.45;1.25;;;;;;;21.37;nan;-24410.94;4984108;28;20652;-70
2023/04/19 11:34:36;;;;;;;1.92;1.40;;;;;;;21.42;nan;-24412.31;4977540;28;20177;-70
2023/04/19 11:37:05;;;;;;;2.28;1.35;;;;;;;21.46;nan;-24413.44;4992188;28;20196;-71
2023/04/19 11:39:30;;;;;;;1.40;1.30;;;;;;;21.74;nan;-24421.03;4992031;28;20203;-72